LIRP/PSA METAR and TAF weather

Enter ICAO airport designator
Station Type Date Time Source
LIRP METAR 2020/11/28 20:15 UTC NOAA

LIRP 282015Z 13010KT 9999 FEW080 10/06 Q1012 NOSIG


Station Type Date Time Source
LIRP Decoded METAR 2020/11/28 20:15 UTC NOAA

Pisa / S. Giusto, Italy (LIRP) 43-41N 010-23E 6M
Nov 28, 2020 - 03:15 PM EST / 2020.11.28 2015 UTC
Wind: from the SE (130 degrees) at 12 MPH (10 KT):0
Visibility: greater than 7 mile(s):0
Sky conditions: mostly clear
Temperature: 50 F (10 C)
Dew Point: 42 F (6 C)
Relative Humidity: 76%
Pressure (altimeter): 29.88 in. Hg (1012 hPa)
ob: LIRP 282015Z 13010KT 9999 FEW080 10/06 Q1012 NOSIG
cycle: 20

Station Type Date Time Source
LIRP TAF 2020/11/28 18:21 UTC NOAA

TAF LIRP 281700Z 2818/2918 10006KT 9999 FEW040 BKN070
TEMPO 2818/2918 08015G25KT

Example: see airport list